Time;durP1;ratioP1;P1;durP2;ratioP2;P2;SDS_P1;SDS_P2;PMS_P1;PMS_P2;Temp;Humidity;BMP_temperature;BMP_pressure;BME280_temperature;BME280_humidity;BME280_pressure;Samples;Min_cycle;Max_cycle;Signal;HPM_P1;HPM_P2
2021/09/22 00:01:29;;;;;;;0.50;0.40;;;10.90;99.90;;;;;;5059554;28;20293;-80
2021/09/22 00:03:56;;;;;;;0.50;0.40;;;10.90;99.90;;;;;;5060686;28;20221;-82
2021/09/22 00:06:23;;;;;;;0.50;0.40;;;10.90;99.90;;;;;;5060745;28;20574;-81
2021/09/22 00:08:50;;;;;;;0.50;0.40;;;10.80;99.90;;;;;;5061703;28;20204;-82
2021/09/22 00:11:18;;;;;;;0.50;0.40;;;10.80;99.90;;;;;;5060523;28;20216;-81
2021/09/22 00:13:45;;;;;;;0.50;0.40;;;10.80;99.90;;;;;;5060190;28;20239;-82
2021/09/22 00:16:12;;;;;;;0.50;0.40;;;10.80;99.90;;;;;;5060450;28;20213;-81
2021/09/22 00:18:38;;;;;;;0.50;0.50;;;10.80;99.90;;;;;;5068699;28;20671;-82
2021/09/22 00:21:06;;;;;;;0.50;0.40;;;10.70;99.90;;;;;;5080043;28;20194;-82
2021/09/22 00:23:33;;;;;;;0.50;0.40;;;10.80;99.90;;;;;;5080831;28;20223;-81
2021/09/22 00:26:00;;;;;;;0.50;0.40;;;10.80;99.90;;;;;;5080577;28;20197;-81
2021/09/22 00:28:29;;;;;;;0.50;0.40;;;10.80;99.90;;;;;;5077635;28;20193;-83
2021/09/22 00:30:55;;;;;;;0.50;0.40;;;10.80;99.90;;;;;;5071663;28;20225;-82
2021/09/22 00:33:22;;;;;;;0.50;0.40;;;10.70;99.90;;;;;;5080158;28;20220;-83
2021/09/22 00:35:49;;;;;;;0.50;0.40;;;10.70;99.90;;;;;;5071769;28;20197;-82
2021/09/22 00:38:16;;;;;;;0.50;0.40;;;10.80;99.90;;;;;;5060352;28;20198;-83
2021/09/22 00:40:42;;;;;;;0.50;0.40;;;10.80;99.90;;;;;;5060531;28;20205;-82
2021/09/22 00:43:09;;;;;;;0.50;0.40;;;10.70;99.90;;;;;;5061082;28;20213;-82
2021/09/22 00:45:37;;;;;;;0.50;0.40;;;10.70;99.90;;;;;;5060370;28;20198;-82
2021/09/22 00:48:05;;;;;;;0.50;0.40;;;10.70;99.90;;;;;;5059655;28;20550;-81
2021/09/22 00:50:31;;;;;;;0.50;0.40;;;10.80;99.90;;;;;;5059660;28;20227;-79
2021/09/22 00:52:58;;;;;;;0.50;0.40;;;10.90;99.90;;;;;;5059993;28;20223;-81
2021/09/22 00:55:25;;;;;;;0.50;0.40;;;10.90;99.90;;;;;;5059846;28;20211;-81
2021/09/22 00:57:55;;;;;;;0.60;0.60;;;11.00;99.90;;;;;;5059791;28;20201;-82
2021/09/22 01:00:24;;;;;;;0.50;0.40;;;11.00;99.90;;;;;;5059487;28;20185;-83
2021/09/22 01:02:53;;;;;;;0.50;0.40;;;11.00;99.90;;;;;;5057305;28;20221;-80
2021/09/22 01:05:22;;;;;;;0.50;0.40;;;11.00;99.90;;;;;;5059402;28;20207;-82
2021/09/22 01:07:49;;;;;;;0.50;0.40;;;11.00;99.90;;;;;;5060630;28;20193;-82
2021/09/22 01:10:16;;;;;;;0.50;0.40;;;11.00;99.90;;;;;;5061842;28;20216;-83
2021/09/22 01:12:43;;;;;;;0.50;0.40;;;11.10;99.90;;;;;;5061395;28;20228;-82
2021/09/22 01:15:11;;;;;;;0.80;0.80;;;11.10;99.90;;;;;;5061006;28;20208;-82
2021/09/22 01:17:39;;;;;;;0.50;0.40;;;11.10;99.90;;;;;;5060042;28;20671;-81
2021/09/22 01:20:09;;;;;;;0.50;0.40;;;11.10;99.90;;;;;;5060562;28;20198;-79
2021/09/22 01:22:37;;;;;;;0.50;0.40;;;11.10;99.90;;;;;;5060927;28;20222;-81
2021/09/22 01:25:04;;;;;;;0.50;0.40;;;11.00;99.90;;;;;;5060448;28;20197;-83
2021/09/22 01:27:31;;;;;;;0.50;0.40;;;11.00;99.90;;;;;;5060934;28;20231;-82
2021/09/22 01:29:58;;;;;;;0.50;0.40;;;11.10;99.90;;;;;;5061264;28;20233;-82
2021/09/22 01:32:25;;;;;;;0.50;0.40;;;11.10;99.90;;;;;;5061204;28;20311;-82
2021/09/22 01:34:52;;;;;;;0.50;0.40;;;11.10;99.90;;;;;;5060971;28;20261;-83
2021/09/22 01:37:18;;;;;;;0.50;0.40;;;11.10;99.90;;;;;;5060754;28;20280;-81
2021/09/22 01:39:46;;;;;;;0.50;0.40;;;11.10;99.90;;;;;;5060734;28;20196;-81
2021/09/22 01:42:13;;;;;;;0.50;0.40;;;11.10;99.90;;;;;;5060789;28;20196;-82
2021/09/22 01:44:40;;;;;;;0.50;0.40;;;11.10;99.90;;;;;;5060961;28;20204;-79
2021/09/22 01:47:07;;;;;;;0.50;0.40;;;11.10;99.90;;;;;;5065318;28;20207;-82
2021/09/22 01:49:35;;;;;;;0.50;0.40;;;11.10;99.90;;;;;;5060701;28;20201;-84
2021/09/22 01:52:04;;;;;;;0.50;0.40;;;11.20;99.90;;;;;;5059836;28;20557;-83
2021/09/22 01:54:31;;;;;;;0.50;0.40;;;11.20;99.90;;;;;;5060086;28;20220;-82
2021/09/22 01:56:59;;;;;;;0.60;0.50;;;11.20;99.90;;;;;;5060615;28;20208;-82
2021/09/22 01:59:26;;;;;;;4.50;1.27;;;11.30;99.90;;;;;;5060988;28;20679;-82
2021/09/22 02:01:52;;;;;;;0.50;0.40;;;11.30;99.90;;;;;;5059994;28;20226;-82
2021/09/22 02:04:19;;;;;;;0.50;0.40;;;11.30;99.90;;;;;;5064438;28;20214;-82
2021/09/22 02:06:46;;;;;;;0.50;0.30;;;11.30;99.90;;;;;;5072151;28;20202;-82
2021/09/22 02:09:12;;;;;;;0.50;0.40;;;11.30;99.90;;;;;;5081209;28;20207;-83
2021/09/22 02:11:39;;;;;;;0.50;0.40;;;11.20;99.90;;;;;;5081547;28;20287;-82
2021/09/22 02:14:07;;;;;;;0.50;0.40;;;11.20;99.90;;;;;;5081797;28;20226;-82
2021/09/22 02:16:34;;;;;;;0.50;0.40;;;11.20;99.90;;;;;;5090589;28;20186;-80
2021/09/22 02:19:01;;;;;;;0.50;0.40;;;11.30;99.90;;;;;;5085132;28;20195;-81
2021/09/22 02:21:27;;;;;;;0.60;0.50;;;11.30;99.90;;;;;;5083454;28;20188;-82
2021/09/22 02:23:54;;;;;;;0.50;0.40;;;11.30;99.90;;;;;;5084414;28;20217;-83
2021/09/22 02:26:21;;;;;;;0.50;0.40;;;11.30;99.90;;;;;;5081349;28;20568;-80
2021/09/22 02:28:47;;;;;;;0.50;0.40;;;11.40;99.90;;;;;;5082821;28;20209;-82
2021/09/22 02:31:15;;;;;;;0.50;0.40;;;11.40;99.90;;;;;;5076003;28;20625;-82
2021/09/22 02:33:42;;;;;;;0.50;0.40;;;11.40;99.90;;;;;;5080778;28;20589;-82
2021/09/22 02:36:09;;;;;;;0.50;0.40;;;11.40;99.90;;;;;;5063457;28;20205;-82
2021/09/22 02:38:35;;;;;;;0.50;0.40;;;11.40;99.90;;;;;;5063245;28;20206;-82
2021/09/22 02:41:04;;;;;;;0.63;0.63;;;11.50;99.90;;;;;;5063361;28;20223;-79
2021/09/22 02:43:30;;;;;;;0.50;0.40;;;11.50;99.90;;;;;;5063822;28;20255;-83
2021/09/22 02:45:57;;;;;;;0.60;0.40;;;11.50;99.90;;;;;;5063632;28;20200;-83
2021/09/22 02:48:25;;;;;;;0.57;0.40;;;11.50;99.90;;;;;;5063525;28;20193;-83
2021/09/22 02:50:52;;;;;;;0.50;0.40;;;11.50;99.90;;;;;;5062547;28;20215;-83
2021/09/22 02:53:19;;;;;;;0.50;0.40;;;11.40;99.90;;;;;;5062434;28;20613;-82
2021/09/22 02:55:46;;;;;;;4.45;1.77;;;11.40;99.90;;;;;;5063057;28;20201;-85
2021/09/22 02:58:13;;;;;;;0.73;0.70;;;11.50;99.90;;;;;;5062111;28;20193;-81
2021/09/22 03:00:40;;;;;;;0.50;0.50;;;11.40;99.90;;;;;;5065499;28;20176;-83
2021/09/22 03:03:06;;;;;;;0.50;0.40;;;11.40;99.90;;;;;;5069935;28;20223;-84
2021/09/22 03:05:34;;;;;;;2.08;1.98;;;11.50;99.90;;;;;;5070290;28;20239;-83
2021/09/22 03:08:01;;;;;;;0.60;0.57;;;11.40;99.90;;;;;;5065058;28;20196;-83
2021/09/22 03:10:28;;;;;;;1.08;1.08;;;11.40;99.90;;;;;;5064003;28;20224;-83
2021/09/22 03:12:55;;;;;;;0.82;0.68;;;11.40;99.90;;;;;;5064115;28;20732;-82
2021/09/22 03:15:22;;;;;;;0.93;0.93;;;11.40;99.90;;;;;;5063783;28;20196;-83
2021/09/22 03:17:49;;;;;;;0.50;0.45;;;11.40;99.90;;;;;;5063244;28;20227;-83
2021/09/22 03:20:16;;;;;;;0.50;0.40;;;11.40;99.90;;;;;;5062963;28;20200;-83
2021/09/22 03:22:44;;;;;;;0.50;0.47;;;11.40;99.90;;;;;;5063900;28;20216;-83
2021/09/22 03:25:12;;;;;;;0.50;0.40;;;11.30;99.90;;;;;;5063397;28;20195;-82
2021/09/22 03:27:39;;;;;;;0.50;0.40;;;11.30;99.90;;;;;;5062939;28;20205;-82
2021/09/22 03:30:08;;;;;;;0.50;0.40;;;11.20;99.90;;;;;;5062934;28;20193;-81
2021/09/22 03:32:35;;;;;;;0.63;0.63;;;11.20;99.90;;;;;;5063691;28;20220;-84
2021/09/22 03:35:03;;;;;;;0.60;0.60;;;11.10;99.90;;;;;;5063153;28;20209;-81
2021/09/22 03:37:30;;;;;;;0.50;0.40;;;11.10;99.90;;;;;;5062912;28;20197;-84
2021/09/22 03:39:58;;;;;;;0.50;0.40;;;11.10;99.90;;;;;;5062251;28;20196;-81
2021/09/22 03:42:24;;;;;;;1.15;1.05;;;11.10;99.90;;;;;;5059833;28;20220;-82
2021/09/22 03:44:51;;;;;;;0.60;0.60;;;11.10;99.90;;;;;;5060685;28;20266;-83
2021/09/22 03:47:18;;;;;;;0.50;0.40;;;11.00;99.90;;;;;;5060493;28;20200;-85
2021/09/22 03:49:44;;;;;;;0.50;0.40;;;10.90;99.90;;;;;;5060962;28;20207;-83
2021/09/22 03:52:11;;;;;;;2.10;1.25;;;10.90;99.90;;;;;;5067946;28;20231;-83
2021/09/22 03:54:38;;;;;;;0.80;0.73;;;10.90;99.90;;;;;;5059868;28;20220;-82
2021/09/22 03:57:06;;;;;;;0.65;0.63;;;10.90;99.90;;;;;;5060108;28;20211;-81
2021/09/22 03:59:33;;;;;;;2.15;2.05;;;10.80;99.90;;;;;;5060046;28;20203;-83
2021/09/22 04:01:59;;;;;;;0.75;0.75;;;10.80;99.90;;;;;;5059339;28;20192;-82
2021/09/22 04:04:26;;;;;;;0.50;0.50;;;10.80;99.90;;;;;;5059887;28;20197;-84
2021/09/22 04:06:53;;;;;;;0.50;0.40;;;10.80;99.90;;;;;;5060128;28;20206;-83
2021/09/22 04:09:20;;;;;;;3.92;2.25;;;10.80;99.90;;;;;;5060175;28;20211;-82
2021/09/22 04:11:46;;;;;;;1.15;1.15;;;10.70;99.90;;;;;;5060756;28;20287;-81
2021/09/22 04:14:14;;;;;;;0.50;0.40;;;10.80;99.90;;;;;;5060776;28;20247;-82
2021/09/22 04:16:41;;;;;;;0.50;0.50;;;10.80;99.90;;;;;;5059998;28;20199;-83
2021/09/22 04:19:08;;;;;;;1.50;1.48;;;10.80;99.90;;;;;;5059691;28;20192;-83
2021/09/22 04:21:35;;;;;;;1.52;1.42;;;10.80;99.90;;;;;;5058831;28;20208;-83
2021/09/22 04:24:01;;;;;;;0.50;0.40;;;10.70;99.90;;;;;;5059618;28;20215;-83
2021/09/22 04:26:28;;;;;;;0.80;0.80;;;10.70;99.90;;;;;;5059229;28;20207;-84
2021/09/22 04:28:55;;;;;;;0.50;0.40;;;10.70;99.90;;;;;;5059804;28;20203;-84
2021/09/22 04:31:23;;;;;;;1.33;1.25;;;10.70;99.90;;;;;;5059198;28;20222;-82
2021/09/22 04:33:50;;;;;;;0.50;0.40;;;10.70;99.90;;;;;;5066572;28;20212;-82
2021/09/22 04:36:17;;;;;;;0.88;0.88;;;10.70;99.90;;;;;;5075290;28;20270;-83
2021/09/22 04:38:44;;;;;;;0.60;0.60;;;10.70;99.90;;;;;;5068123;28;20684;-83
2021/09/22 04:41:11;;;;;;;2.00;1.58;;;10.70;99.90;;;;;;5079117;28;20270;-83
2021/09/22 04:43:38;;;;;;;0.60;0.50;;;10.80;99.90;;;;;;5076242;28;20217;-82
2021/09/22 04:46:04;;;;;;;0.60;0.60;;;10.80;99.90;;;;;;5078219;28;20198;-82
2021/09/22 04:48:33;;;;;;;6.38;1.75;;;10.70;99.90;;;;;;5080134;28;20190;-83
2021/09/22 04:50:59;;;;;;;0.50;0.50;;;10.80;99.90;;;;;;5078667;28;20214;-83
2021/09/22 04:53:26;;;;;;;0.68;0.68;;;10.70;99.90;;;;;;5079488;28;20264;-83
2021/09/22 04:55:53;;;;;;;3.20;3.03;;;10.80;99.90;;;;;;5079278;28;20692;-83
2021/09/22 04:58:20;;;;;;;1.30;1.20;;;10.70;99.90;;;;;;5078619;28;20200;-83
2021/09/22 05:00:47;;;;;;;0.60;0.60;;;10.70;99.90;;;;;;5078015;28;20197;-81
2021/09/22 05:03:15;;;;;;;1.17;0.93;;;10.80;99.90;;;;;;5078989;28;20218;-82
2021/09/22 05:05:43;;;;;;;3.22;3.03;;;10.80;99.90;;;;;;5079058;28;20195;-81
2021/09/22 05:08:10;;;;;;;7.50;1.58;;;10.80;99.90;;;;;;5078911;28;20204;-81
2021/09/22 05:10:37;;;;;;;0.50;0.40;;;10.80;99.90;;;;;;5078798;28;20195;-81
2021/09/22 05:13:04;;;;;;;0.50;0.40;;;10.80;99.90;;;;;;5080236;28;20436;-81
2021/09/22 05:15:30;;;;;;;0.93;0.93;;;10.80;99.90;;;;;;5079404;28;20200;-82
2021/09/22 05:17:57;;;;;;;1.30;1.20;;;10.80;99.90;;;;;;5080513;28;20207;-81
2021/09/22 05:20:24;;;;;;;0.50;0.40;;;10.70;99.90;;;;;;5079892;28;20207;-81
2021/09/22 05:22:52;;;;;;;0.80;0.80;;;10.70;99.90;;;;;;5072877;28;20708;-81
2021/09/22 05:25:19;;;;;;;1.25;1.25;;;10.80;99.90;;;;;;5071859;28;20600;-81
2021/09/22 05:27:46;;;;;;;0.50;0.50;;;10.80;99.90;;;;;;5081067;28;20196;-83
2021/09/22 05:30:14;;;;;;;0.50;0.40;;;10.80;99.90;;;;;;5081175;28;20653;-82
2021/09/22 05:32:40;;;;;;;1.05;1.05;;;10.80;99.90;;;;;;5081986;28;20225;-83
2021/09/22 05:35:09;;;;;;;1.65;1.55;;;10.90;99.90;;;;;;5077720;28;20633;-82
2021/09/22 05:37:37;;;;;;;1.35;1.25;;;10.90;99.90;;;;;;5060183;28;20204;-83
2021/09/22 05:40:07;;;;;;;0.50;0.40;;;10.90;99.90;;;;;;5059157;28;20192;-81
2021/09/22 05:42:35;;;;;;;0.90;0.85;;;10.90;99.90;;;;;;5059414;28;20214;-82
2021/09/22 05:45:02;;;;;;;0.50;0.40;;;10.90;99.90;;;;;;5059070;28;20201;-83
2021/09/22 05:47:29;;;;;;;3.00;2.35;;;11.00;99.90;;;;;;5058796;28;20207;-83
2021/09/22 05:49:55;;;;;;;1.55;1.23;;;11.00;99.90;;;;;;5064487;28;20201;-82
2021/09/22 05:52:22;;;;;;;2.58;2.00;;;11.10;99.90;;;;;;5068827;28;20221;-83
2021/09/22 05:54:50;;;;;;;0.80;0.60;;;11.20;99.90;;;;;;5064857;28;20191;-83
2021/09/22 05:57:18;;;;;;;1.40;1.30;;;11.20;99.90;;;;;;5063643;28;20216;-84
2021/09/22 05:59:45;;;;;;;0.50;0.40;;;11.30;99.90;;;;;;5064475;28;20671;-81
2021/09/22 06:02:12;;;;;;;1.92;1.48;;;11.30;99.90;;;;;;5061418;28;20183;-83
2021/09/22 06:04:38;;;;;;;0.82;0.82;;;11.40;99.90;;;;;;5071678;28;20196;-82
2021/09/22 06:07:05;;;;;;;2.05;1.95;;;11.50;99.90;;;;;;5080434;28;20202;-83
2021/09/22 06:09:32;;;;;;;1.00;1.00;;;11.60;99.90;;;;;;5080881;28;20196;-83
2021/09/22 06:11:59;;;;;;;3.00;2.90;;;11.70;99.90;;;;;;5070925;28;20773;-81
2021/09/22 06:14:27;;;;;;;0.50;0.40;;;11.80;99.90;;;;;;5077426;28;20193;-79
2021/09/22 06:16:54;;;;;;;0.50;0.50;;;11.90;99.90;;;;;;5083701;28;20206;-82
2021/09/22 06:19:20;;;;;;;1.02;0.95;;;12.00;99.90;;;;;;5082781;28;20197;-83
2021/09/22 06:21:47;;;;;;;2.03;1.40;;;12.10;99.90;;;;;;5078648;28;20197;-82
2021/09/22 06:24:18;;;;;;;3.72;0.80;;;12.20;99.90;;;;;;5078546;28;20216;-85
2021/09/22 06:26:45;;;;;;;6.70;1.83;;;12.30;99.90;;;;;;5080051;28;20278;-82
2021/09/22 06:29:13;;;;;;;1.75;1.65;;;12.40;99.90;;;;;;5082054;28;20202;-81
2021/09/22 06:31:42;;;;;;;0.60;0.60;;;12.40;99.90;;;;;;5081200;28;20311;-81
2021/09/22 06:34:09;;;;;;;0.50;0.40;;;12.50;99.90;;;;;;5081499;28;20217;-82
2021/09/22 06:36:35;;;;;;;3.05;1.20;;;12.70;99.90;;;;;;5075407;28;20214;-81
2021/09/22 06:39:03;;;;;;;0.50;0.40;;;12.90;99.90;;;;;;5062247;28;20221;-80
2021/09/22 06:41:30;;;;;;;0.50;0.40;;;13.10;99.90;;;;;;5065326;28;20230;-81
2021/09/22 06:43:57;;;;;;;0.50;0.40;;;13.30;99.90;;;;;;5076068;28;20237;-83
2021/09/22 06:46:24;;;;;;;0.60;0.55;;;13.50;99.90;;;;;;5076656;28;20198;-83
2021/09/22 06:48:52;;;;;;;0.95;0.95;;;14.00;99.90;;;;;;5076980;28;20198;-84
2021/09/22 06:51:19;;;;;;;1.93;1.23;;;14.40;99.90;;;;;;5073584;28;20206;-83
2021/09/22 06:53:46;;;;;;;0.70;0.60;;;14.60;99.90;;;;;;5065518;28;20495;-82
2021/09/22 06:56:12;;;;;;;1.03;1.03;;;14.70;99.90;;;;;;5065291;28;20195;-82
2021/09/22 06:58:39;;;;;;;0.60;0.50;;;14.90;99.90;;;;;;5057629;28;20445;-82
2021/09/22 07:01:06;;;;;;;0.60;0.47;;;15.10;99.90;;;;;;5057407;28;20455;-83
2021/09/22 07:03:33;;;;;;;0.50;0.40;;;15.30;99.90;;;;;;5057499;28;20715;-83
2021/09/22 07:06:01;;;;;;;2.47;2.30;;;15.30;99.90;;;;;;5067040;28;20520;-82
2021/09/22 07:08:28;;;;;;;0.50;0.40;;;15.30;99.90;;;;;;5074716;28;20452;-84
2021/09/22 07:10:54;;;;;;;0.70;0.50;;;15.40;99.90;;;;;;5062422;28;20199;-83
2021/09/22 07:13:22;;;;;;;0.50;0.40;;;15.50;99.90;;;;;;5063583;28;20489;-83
2021/09/22 07:15:49;;;;;;;0.70;0.70;;;15.60;99.90;;;;;;5062593;28;20468;-81
2021/09/22 07:18:18;;;;;;;0.50;0.40;;;15.70;99.90;;;;;;5063502;28;20450;-83
2021/09/22 07:20:45;;;;;;;0.50;0.40;;;15.90;99.90;;;;;;5064765;28;20438;-82
2021/09/22 07:23:13;;;;;;;0.60;0.60;;;15.80;99.90;;;;;;5062312;28;20464;-81
2021/09/22 07:25:40;;;;;;;0.50;0.40;;;15.80;99.90;;;;;;5070229;28;20448;-84
2021/09/22 07:28:06;;;;;;;0.60;0.50;;;15.60;99.90;;;;;;5081726;28;20558;-83
2021/09/22 07:30:33;;;;;;;3.07;2.87;;;15.40;99.90;;;;;;5083689;28;20441;-83
2021/09/22 07:33:01;;;;;;;0.60;0.60;;;15.50;99.90;;;;;;5086484;28;20851;-82
2021/09/22 07:35:28;;;;;;;0.50;0.50;;;15.60;99.90;;;;;;5088768;28;20532;-83
2021/09/22 07:37:55;;;;;;;0.50;0.30;;;15.80;99.90;;;;;;5081282;28;20436;-83
2021/09/22 07:40:23;;;;;;;3.33;1.53;;;16.30;99.90;;;;;;5081113;28;20437;-84
2021/09/22 07:42:50;;;;;;;1.30;1.20;;;16.40;99.90;;;;;;5081934;28;20460;-83
2021/09/22 07:45:17;;;;;;;1.43;1.03;;;16.40;99.90;;;;;;5080995;28;20439;-84
2021/09/22 07:47:44;;;;;;;1.03;0.93;;;16.40;99.90;;;;;;5081302;28;20449;-85
2021/09/22 07:50:12;;;;;;;0.50;0.30;;;16.60;99.90;;;;;;5081630;28;20432;-84
2021/09/22 07:52:39;;;;;;;1.13;1.13;;;16.90;99.90;;;;;;5081507;28;20477;-84
2021/09/22 07:55:09;;;;;;;3.13;2.00;;;17.30;99.90;;;;;;5076781;28;20464;-85
2021/09/22 07:57:37;;;;;;;0.50;0.30;;;17.90;99.90;;;;;;5082262;28;20433;-83
2021/09/22 08:00:05;;;;;;;1.13;1.10;;;18.60;99.90;;;;;;5078890;28;20439;-83
2021/09/22 08:02:32;;;;;;;0.50;0.30;;;19.50;99.90;;;;;;5064137;28;20467;-84
2021/09/22 08:04:59;;;;;;;0.50;0.40;;;20.10;99.90;;;;;;5065678;28;20448;-84
2021/09/22 08:07:26;;;;;;;1.40;1.40;;;20.90;99.90;;;;;;5065065;28;20535;-85
2021/09/22 08:09:53;;;;;;;0.50;0.40;;;21.80;99.90;;;;;;5065438;28;20460;-85
2021/09/22 08:12:19;;;;;;;2.87;2.67;;;22.80;99.90;;;;;;5067682;28;20464;-87
2021/09/22 08:14:47;;;;;;;0.97;0.97;;;22.90;97.70;;;;;;5083924;28;20437;-85
2021/09/22 08:17:17;;;;;;;2.37;1.90;;;22.30;95.50;;;;;;5084164;28;20443;-86
2021/09/22 08:19:44;;;;;;;0.97;0.97;;;22.10;95.90;;;;;;5081912;28;20451;-84
2021/09/22 08:22:11;;;;;;;3.10;2.50;;;21.70;97.20;;;;;;5080235;28;20508;-84
2021/09/22 08:24:38;;;;;;;2.40;2.30;;;21.70;97.00;;;;;;5081640;28;20805;-84
2021/09/22 08:27:05;;;;;;;22.77;1.70;;;21.70;97.40;;;;;;5080539;28;20456;-84
2021/09/22 08:29:32;;;;;;;0.50;0.40;;;21.60;96.80;;;;;;5080728;28;20439;-84
2021/09/22 08:32:01;;;;;;;0.50;0.40;;;21.20;98.70;;;;;;5080607;28;20536;-84
2021/09/22 08:34:28;;;;;;;0.70;0.70;;;21.40;99.90;;;;;;5080565;28;20441;-84
2021/09/22 08:36:54;;;;;;;1.83;0.80;;;22.00;97.20;;;;;;5094489;23;20494;-77
2021/09/22 08:39:21;;;;;;;2.20;2.10;;;22.60;95.60;;;;;;5092520;28;20459;-78
2021/09/22 08:41:49;;;;;;;0.80;0.60;;;23.50;95.20;;;;;;5093082;28;20450;-76
2021/09/22 08:44:17;;;;;;;0.50;0.40;;;24.30;89.90;;;;;;5092985;28;20439;-77
2021/09/22 08:46:45;;;;;;;0.87;0.87;;;24.10;86.60;;;;;;5093009;28;20467;-76
2021/09/22 08:49:14;;;;;;;0.50;0.30;;;23.80;86.10;;;;;;5085078;28;20444;-76
2021/09/22 08:51:41;;;;;;;0.60;0.30;;;24.00;88.00;;;;;;5072141;28;20447;-77
2021/09/22 08:54:09;;;;;;;0.50;0.50;;;24.90;86.40;;;;;;5072236;28;20447;-77
2021/09/22 08:56:37;;;;;;;1.80;1.17;;;25.70;80.10;;;;;;5072686;28;20456;-79
2021/09/22 08:59:04;;;;;;;0.50;0.30;;;25.40;79.10;;;;;;5073044;28;20448;-76
2021/09/22 09:01:31;;;;;;;1.00;1.00;;;25.90;76.70;;;;;;5072488;28;20455;-76
2021/09/22 09:03:57;;;;;;;0.50;0.40;;;26.30;74.80;;;;;;5072477;28;20972;-76
2021/09/22 09:06:30;;;;;;;0.50;0.30;;;26.80;72.40;;;;;;5072279;28;20463;-77
2021/09/22 09:08:58;;;;;;;0.50;0.30;;;27.30;73.10;;;;;;5072766;28;20543;-79
2021/09/22 09:11:29;;;;;;;0.50;0.37;;;28.20;68.70;;;;;;5071563;28;20468;-75
2021/09/22 09:13:58;;;;;;;0.50;0.30;;;28.50;64.80;;;;;;5072544;28;20464;-76
2021/09/22 09:16:35;;;;;;;1.93;1.80;;;28.60;64.60;;;;;;5072494;28;20468;-77
2021/09/22 09:19:01;;;;;;;0.60;0.60;;;28.40;63.30;;;;;;5073836;28;20976;-79
2021/09/22 09:21:30;;;;;;;0.50;0.30;;;27.80;63.70;;;;;;5072125;28;20442;-77
2021/09/22 09:23:59;;;;;;;0.60;0.50;;;28.20;63.10;;;;;;5071896;28;20442;-76
2021/09/22 09:26:30;;;;;;;0.97;0.83;;;28.20;63.00;;;;;;5072428;28;20473;-77
2021/09/22 09:28:59;;;;;;;1.37;1.30;;;27.70;63.80;;;;;;5073589;28;20440;-75
2021/09/22 09:31:31;;;;;;;0.50;0.30;;;27.60;64.10;;;;;;5078181;28;20437;-79
2021/09/22 09:33:59;;;;;;;0.50;0.50;;;28.00;67.10;;;;;;5090589;28;20469;-79
2021/09/22 09:36:29;;;;;;;0.60;0.40;;;28.80;63.70;;;;;;5077987;28;20836;-77
2021/09/22 09:39:02;;;;;;;2.67;1.90;;;29.30;63.70;;;;;;5092447;28;20441;-76
2021/09/22 09:41:33;;;;;;;0.60;0.50;;;29.50;60.80;;;;;;5092280;28;20999;-79
2021/09/22 09:44:01;;;;;;;2.93;2.67;;;28.80;61.50;;;;;;5092051;28;20438;-79
2021/09/22 09:46:29;;;;;;;2.27;2.07;;;28.90;61.60;;;;;;5092079;28;20626;-79
2021/09/22 09:49:02;;;;;;;0.50;0.40;;;27.80;61.90;;;;;;5086958;28;20464;-78
2021/09/22 09:51:34;;;;;;;0.97;0.97;;;26.00;65.80;;;;;;5071597;28;20422;-78
2021/09/22 09:54:21;;;;;;;0.90;0.90;;;24.70;68.70;;;;;;5071382;28;21005;-77
2021/09/22 09:56:49;;;;;;;2.10;1.70;;;24.80;70.90;;;;;;5071521;28;20452;-79
2021/09/22 09:59:16;;;;;;;2.97;1.63;;;25.40;70.20;;;;;;5075887;28;20436;-78
2021/09/22 10:01:45;;;;;;;0.50;0.30;;;26.20;70.20;;;;;;5083539;28;20432;-79
2021/09/22 10:04:15;;;;;;;2.30;2.10;;;26.90;70.50;;;;;;5091691;28;20426;-78
2021/09/22 10:06:43;;;;;;;0.50;0.30;;;27.40;66.90;;;;;;5092525;28;20879;-78
2021/09/22 10:09:10;;;;;;;0.50;0.30;;;28.20;68.30;;;;;;5092200;28;20441;-78
2021/09/22 10:11:41;;;;;;;0.60;0.40;;;27.90;65.70;;;;;;5091995;28;20466;-79
2021/09/22 10:14:09;;;;;;;0.50;0.40;;;28.30;67.00;;;;;;5092336;28;20473;-78
2021/09/22 10:16:37;;;;;;;0.93;0.90;;;27.70;64.60;;;;;;5092077;28;20817;-78
2021/09/22 10:19:06;;;;;;;0.50;0.30;;;26.40;66.00;;;;;;5091910;28;20440;-78
2021/09/22 10:21:34;;;;;;;5.20;1.07;;;25.80;68.50;;;;;;5091598;28;20448;-78
2021/09/22 10:24:03;;;;;;;1.40;1.10;;;25.80;69.30;;;;;;5091527;28;20797;-79
2021/09/22 10:26:32;;;;;;;1.70;1.60;;;26.00;70.30;;;;;;5091704;28;20461;-79
2021/09/22 10:29:17;;;;;;;0.60;0.50;;;25.90;72.90;;;;;;5092118;28;20461;-79
2021/09/22 10:31:44;;;;;;;0.50;0.30;;;26.40;70.40;;;;;;5091829;28;20442;-77
2021/09/22 10:34:29;;;;;;;0.50;0.30;;;26.90;71.40;;;;;;5088131;28;20470;-79
2021/09/22 10:36:56;;;;;;;0.80;0.60;;;27.20;68.10;;;;;;5071325;28;20478;-79
2021/09/22 10:39:40;;;;;;;3.43;1.47;;;27.70;67.70;;;;;;5071983;28;20443;-76
2021/09/22 10:42:23;;;;;;;2.10;2.00;;;28.20;61.90;;;;;;5074862;28;20484;-79
2021/09/22 10:44:51;;;;;;;0.50;0.40;;;27.90;62.10;;;;;;5076046;28;20443;-78
2021/09/22 10:47:28;;;;;;;0.73;0.73;;;27.60;64.80;;;;;;5075022;28;20465;-79
2021/09/22 10:49:55;;;;;;;0.50;0.30;;;28.30;63.80;;;;;;5075393;28;20928;-79
2021/09/22 10:52:34;;;;;;;0.50;0.30;;;27.80;63.20;;;;;;5075330;28;20442;-79
2021/09/22 10:55:09;;;;;;;0.50;0.30;;;28.40;64.60;;;;;;5075708;28;20835;-78
2021/09/22 10:57:36;;;;;;;0.50;0.30;;;29.00;62.70;;;;;;5075172;28;20466;-79
2021/09/22 11:00:11;;;;;;;1.57;1.47;;;29.80;61.50;;;;;;5076244;28;20444;-77
2021/09/22 11:02:44;;;;;;;1.20;1.10;;;30.10;59.20;;;;;;5076122;28;20435;-79
2021/09/22 11:05:12;;;;;;;0.93;0.93;;;30.40;56.70;;;;;;5075693;28;20570;-79
2021/09/22 11:07:58;;;;;;;0.50;0.30;;;29.60;59.10;;;;;;5075083;28;20460;-79
2021/09/22 11:10:41;;;;;;;1.03;0.93;;;29.40;58.20;;;;;;5075581;28;20844;-75
2021/09/22 11:13:34;;;;;;;0.50;0.30;;;29.40;56.30;;;;;;5075321;28;20463;-78
2021/09/22 11:16:20;;;;;;;4.10;1.17;;;29.50;56.80;;;;;;5075131;28;20464;-80
2021/09/22 11:18:50;;;;;;;0.80;0.80;;;28.90;58.90;;;;;;5075683;28;20436;-80
2021/09/22 11:21:21;;;;;;;0.60;0.40;;;30.00;58.80;;;;;;5075270;28;20432;-78
2021/09/22 11:23:48;;;;;;;0.50;0.30;;;30.80;56.00;;;;;;5075421;28;20441;-79
2021/09/22 11:26:15;;;;;;;0.50;0.30;;;31.20;54.90;;;;;;5075558;28;20544;-79
2021/09/22 11:28:53;;;;;;;0.60;0.60;;;30.60;53.60;;;;;;5076791;28;20439;-79
2021/09/22 11:31:22;;;;;;;0.50;0.30;;;30.80;54.80;;;;;;5083551;28;20491;-79
2021/09/22 11:33:49;;;;;;;0.50;0.50;;;30.90;53.40;;;;;;5075519;28;20819;-77
2021/09/22 11:36:16;;;;;;;0.60;0.40;;;31.20;54.60;;;;;;5081554;28;20465;-76
2021/09/22 11:38:42;;;;;;;0.90;0.90;;;31.00;55.00;;;;;;5073927;28;20437;-77
2021/09/22 11:41:09;;;;;;;0.50;0.30;;;30.70;54.90;;;;;;5073565;28;20534;-76
2021/09/22 11:43:36;;;;;;;3.57;1.43;;;30.60;55.20;;;;;;5073955;28;20456;-75
2021/09/22 11:46:04;;;;;;;0.50;0.40;;;31.00;53.90;;;;;;5073793;28;21005;-76
2021/09/22 11:48:34;;;;;;;0.60;0.60;;;30.90;53.80;;;;;;5074028;28;20460;-77
2021/09/22 11:51:03;;;;;;;0.50;0.30;;;30.60;55.10;;;;;;5073449;28;20440;-79
2021/09/22 11:53:32;;;;;;;0.60;0.40;;;29.90;57.80;;;;;;5074836;28;20480;-78
2021/09/22 11:56:00;;;;;;;0.50;0.30;;;30.00;55.90;;;;;;5075175;28;20469;-78
2021/09/22 11:58:28;;;;;;;0.50;0.30;;;30.10;56.80;;;;;;5075532;28;20444;-78
2021/09/22 12:00:58;;;;;;;0.50;0.30;;;30.30;55.70;;;;;;5075307;28;20447;-78
2021/09/22 12:03:27;;;;;;;0.87;0.87;;;30.60;56.60;;;;;;5077477;28;20429;-79
2021/09/22 12:06:06;;;;;;;0.50;0.30;;;30.90;54.20;;;;;;5074290;28;20469;-78
2021/09/22 12:08:34;;;;;;;0.50;0.30;;;30.80;54.60;;;;;;5074443;28;20421;-77
2021/09/22 12:11:02;;;;;;;3.37;1.93;;;30.90;55.30;;;;;;5073402;28;20438;-79
2021/09/22 12:13:29;;;;;;;8.83;2.97;;;30.60;54.90;;;;;;5073782;28;20465;-75
2021/09/22 12:15:57;;;;;;;0.50;0.40;;;29.20;55.60;;;;;;5074007;28;20468;-78
2021/09/22 12:18:25;;;;;;;1.90;1.60;;;28.30;56.20;;;;;;5073281;28;20928;-78
2021/09/22 12:20:52;;;;;;;0.83;0.83;;;27.60;57.60;;;;;;5081225;28;20485;-77
2021/09/22 12:23:27;;;;;;;0.50;0.30;;;28.10;59.60;;;;;;5073603;28;20439;-79
2021/09/22 12:26:08;;;;;;;0.73;0.63;;;29.00;58.10;;;;;;5073418;28;20450;-79
2021/09/22 12:28:34;;;;;;;0.67;0.40;;;28.10;57.10;;;;;;5073660;28;20472;-79
2021/09/22 12:31:13;;;;;;;0.50;0.30;;;28.50;58.20;;;;;;5073378;28;20444;-79
2021/09/22 12:33:40;;;;;;;0.50;0.30;;;28.90;59.30;;;;;;5073385;28;20475;-79
2021/09/22 12:36:10;;;;;;;0.50;0.50;;;29.60;58.10;;;;;;5073245;28;20490;-79
2021/09/22 12:38:46;;;;;;;0.50;0.30;;;30.20;56.50;;;;;;5073462;28;20454;-76
2021/09/22 12:41:13;;;;;;;0.50;0.30;;;31.00;55.50;;;;;;5071434;28;20466;-76
2021/09/22 12:43:40;;;;;;;2.67;2.10;;;31.40;54.60;;;;;;5076191;28;20443;-76
2021/09/22 12:46:09;;;;;;;0.50;0.30;;;30.40;52.80;;;;;;5092601;28;20457;-79
2021/09/22 12:48:36;;;;;;;1.17;1.07;;;30.10;55.40;;;;;;5079458;28;20437;-78
2021/09/22 12:51:13;;;;;;;0.90;0.90;;;30.20;55.10;;;;;;5072072;28;20438;-79
2021/09/22 12:53:39;;;;;;;0.50;0.50;;;29.90;54.10;;;;;;5073232;28;20842;-79